sensor_id;sensor_type;location;lat;lon;timestamp;temperature;humidity
68450;SHT30;67758;39.572;2.652;2023-11-21T00:00:19;16.51;92.69
68450;SHT30;67758;39.572;2.652;2023-11-21T00:02:45;16.45;92.54
68450;SHT30;67758;39.572;2.652;2023-11-21T00:05:12;16.42;92.60
68450;SHT30;67758;39.572;2.652;2023-11-21T00:07:40;16.37;92.64
68450;SHT30;67758;39.572;2.652;2023-11-21T00:10:06;16.30;92.89
68450;SHT30;67758;39.572;2.652;2023-11-21T00:12:36;16.22;93.13
68450;SHT30;67758;39.572;2.652;2023-11-21T00:15:02;16.14;93.18
68450;SHT30;67758;39.572;2.652;2023-11-21T00:17:28;16.20;93.36
68450;SHT30;67758;39.572;2.652;2023-11-21T00:19:54;16.22;93.09
68450;SHT30;67758;39.572;2.652;2023-11-21T00:22:20;16.22;92.97
68450;SHT30;67758;39.572;2.652;2023-11-21T00:24:46;16.11;92.94
68450;SHT30;67758;39.572;2.652;2023-11-21T00:27:12;16.09;92.96
68450;SHT30;67758;39.572;2.652;2023-11-21T00:29:37;16.06;93.01
68450;SHT30;67758;39.572;2.652;2023-11-21T00:32:05;16.09;92.56
68450;SHT30;67758;39.572;2.652;2023-11-21T00:34:31;16.07;92.13
68450;SHT30;67758;39.572;2.652;2023-11-21T00:36:57;16.04;91.74
68450;SHT30;67758;39.572;2.652;2023-11-21T00:39:22;16.06;91.35
68450;SHT30;67758;39.572;2.652;2023-11-21T00:41:48;16.03;91.13
68450;SHT30;67758;39.572;2.652;2023-11-21T00:44:13;15.99;90.80
68450;SHT30;67758;39.572;2.652;2023-11-21T00:46:39;15.97;90.44
68450;SHT30;67758;39.572;2.652;2023-11-21T00:49:05;16.03;89.93
68450;SHT30;67758;39.572;2.652;2023-11-21T00:51:30;16.04;89.66
68450;SHT30;67758;39.572;2.652;2023-11-21T00:53:56;16.04;89.26
68450;SHT30;67758;39.572;2.652;2023-11-21T00:56:22;16.06;88.93
68450;SHT30;67758;39.572;2.652;2023-11-21T00:58:48;16.03;89.00
68450;SHT30;67758;39.572;2.652;2023-11-21T01:01:20;16.00;88.85
68450;SHT30;67758;39.572;2.652;2023-11-21T01:03:48;15.96;88.85
68450;SHT30;67758;39.572;2.652;2023-11-21T01:06:15;15.94;89.04
68450;SHT30;67758;39.572;2.652;2023-11-21T01:08:40;15.85;89.31
68450;SHT30;67758;39.572;2.652;2023-11-21T01:11:06;15.86;89.34
68450;SHT30;67758;39.572;2.652;2023-11-21T01:13:34;15.83;89.28
68450;SHT30;67758;39.572;2.652;2023-11-21T01:16:00;15.77;89.45
68450;SHT30;67758;39.572;2.652;2023-11-21T01:18:26;15.73;89.49
68450;SHT30;67758;39.572;2.652;2023-11-21T01:20:52;15.70;89.63
68450;SHT30;67758;39.572;2.652;2023-11-21T01:23:19;15.69;89.68
68450;SHT30;67758;39.572;2.652;2023-11-21T01:25:45;15.60;89.81
68450;SHT30;67758;39.572;2.652;2023-11-21T01:28:10;15.63;90.02
68450;SHT30;67758;39.572;2.652;2023-11-21T01:30:36;15.66;89.93
68450;SHT30;67758;39.572;2.652;2023-11-21T01:33:02;15.62;89.99
68450;SHT30;67758;39.572;2.652;2023-11-21T01:35:28;15.63;90.07
68450;SHT30;67758;39.572;2.652;2023-11-21T01:37:54;15.67;90.05
68450;SHT30;67758;39.572;2.652;2023-11-21T01:40:20;15.63;89.97
68450;SHT30;67758;39.572;2.652;2023-11-21T01:42:46;15.63;89.86
68450;SHT30;67758;39.572;2.652;2023-11-21T01:45:13;15.60;89.90
68450;SHT30;67758;39.572;2.652;2023-11-21T01:47:40;15.56;90.01
68450;SHT30;67758;39.572;2.652;2023-11-21T01:50:13;15.58;89.95
68450;SHT30;67758;39.572;2.652;2023-11-21T01:52:39;15.60;89.80
68450;SHT30;67758;39.572;2.652;2023-11-21T01:55:07;15.66;89.75
68450;SHT30;67758;39.572;2.652;2023-11-21T01:57:35;15.77;89.48
68450;SHT30;67758;39.572;2.652;2023-11-21T02:00:03;15.87;89.12
68450;SHT30;67758;39.572;2.652;2023-11-21T02:02:47;15.93;88.91
68450;SHT30;67758;39.572;2.652;2023-11-21T02:05:15;15.99;88.72
68450;SHT30;67758;39.572;2.652;2023-11-21T02:07:41;16.00;88.66
68450;SHT30;67758;39.572;2.652;2023-11-21T02:10:08;16.01;88.44
68450;SHT30;67758;39.572;2.652;2023-11-21T02:12:35;16.04;88.22
68450;SHT30;67758;39.572;2.652;2023-11-21T02:15:04;16.09;88.13
68450;SHT30;67758;39.572;2.652;2023-11-21T02:17:35;16.06;88.20
68450;SHT30;67758;39.572;2.652;2023-11-21T02:20:01;16.03;88.10
68450;SHT30;67758;39.572;2.652;2023-11-21T02:22:32;15.94;88.25
68450;SHT30;67758;39.572;2.652;2023-11-21T02:24:59;15.90;88.34
68450;SHT30;67758;39.572;2.652;2023-11-21T02:27:25;15.86;88.71
68450;SHT30;67758;39.572;2.652;2023-11-21T02:29:52;15.93;88.66
68450;SHT30;67758;39.572;2.652;2023-11-21T02:32:18;15.97;88.60
68450;SHT30;67758;39.572;2.652;2023-11-21T02:34:44;16.01;88.41
68450;SHT30;67758;39.572;2.652;2023-11-21T02:37:10;16.04;88.30
68450;SHT30;67758;39.572;2.652;2023-11-21T02:39:36;16.09;88.09
68450;SHT30;67758;39.572;2.652;2023-11-21T02:42:01;16.06;88.02
68450;SHT30;67758;39.572;2.652;2023-11-21T02:44:27;16.04;87.86
68450;SHT30;67758;39.572;2.652;2023-11-21T02:46:52;16.06;87.49
68450;SHT30;67758;39.572;2.652;2023-11-21T02:49:18;16.03;87.61
68450;SHT30;67758;39.572;2.652;2023-11-21T02:51:43;16.07;87.39
68450;SHT30;67758;39.572;2.652;2023-11-21T02:54:09;16.13;87.06
68450;SHT30;67758;39.572;2.652;2023-11-21T02:56:35;16.14;86.89
68450;SHT30;67758;39.572;2.652;2023-11-21T02:59:01;16.21;86.48
68450;SHT30;67758;39.572;2.652;2023-11-21T03:01:27;16.25;86.12
68450;SHT30;67758;39.572;2.652;2023-11-21T03:03:53;16.30;85.96
68450;SHT30;67758;39.572;2.652;2023-11-21T03:06:20;16.30;86.02
68450;SHT30;67758;39.572;2.652;2023-11-21T03:08:46;16.28;85.92
68450;SHT30;67758;39.572;2.652;2023-11-21T03:11:13;16.34;85.46
68450;SHT30;67758;39.572;2.652;2023-11-21T03:13:41;16.37;85.24
68450;SHT30;67758;39.572;2.652;2023-11-21T03:16:08;16.30;85.06
68450;SHT30;67758;39.572;2.652;2023-11-21T03:18:34;16.31;85.17
68450;SHT30;67758;39.572;2.652;2023-11-21T03:21:00;16.27;85.46
68450;SHT30;67758;39.572;2.652;2023-11-21T03:23:25;16.13;85.83
68450;SHT30;67758;39.572;2.652;2023-11-21T03:25:51;16.06;85.91
68450;SHT30;67758;39.572;2.652;2023-11-21T03:28:16;16.03;85.73
68450;SHT30;67758;39.572;2.652;2023-11-21T03:30:42;16.00;85.67
68450;SHT30;67758;39.572;2.652;2023-11-21T03:33:08;15.99;85.62
68450;SHT30;67758;39.572;2.652;2023-11-21T03:35:33;15.96;85.77
68450;SHT30;67758;39.572;2.652;2023-11-21T03:37:59;15.93;85.65
68450;SHT30;67758;39.572;2.652;2023-11-21T03:40:24;15.91;85.73
68450;SHT30;67758;39.572;2.652;2023-11-21T03:42:50;15.91;85.64
68450;SHT30;67758;39.572;2.652;2023-11-21T03:45:16;15.93;85.49
68450;SHT30;67758;39.572;2.652;2023-11-21T03:47:42;15.96;85.44
68450;SHT30;67758;39.572;2.652;2023-11-21T03:50:10;15.96;85.01
68450;SHT30;67758;39.572;2.652;2023-11-21T03:52:37;15.99;85.02
68450;SHT30;67758;39.572;2.652;2023-11-21T03:55:02;16.00;84.91
68450;SHT30;67758;39.572;2.652;2023-11-21T03:57:28;15.99;85.12
68450;SHT30;67758;39.572;2.652;2023-11-21T03:59:54;15.97;84.91
68450;SHT30;67758;39.572;2.652;2023-11-21T04:02:19;15.94;84.91
68450;SHT30;67758;39.572;2.652;2023-11-21T04:04:45;15.90;84.75
68450;SHT30;67758;39.572;2.652;2023-11-21T04:07:11;15.87;84.94
68450;SHT30;67758;39.572;2.652;2023-11-21T04:09:39;15.90;84.62
68450;SHT30;67758;39.572;2.652;2023-11-21T04:12:05;15.87;84.37
68450;SHT30;67758;39.572;2.652;2023-11-21T04:14:31;15.89;83.35
68450;SHT30;67758;39.572;2.652;2023-11-21T04:16:57;16.00;82.23
68450;SHT30;67758;39.572;2.652;2023-11-21T04:19:22;16.01;82.70
68450;SHT30;67758;39.572;2.652;2023-11-21T04:21:48;16.03;81.93
68450;SHT30;67758;39.572;2.652;2023-11-21T04:24:14;16.01;82.18
68450;SHT30;67758;39.572;2.652;2023-11-21T04:26:39;16.07;81.51
68450;SHT30;67758;39.572;2.652;2023-11-21T04:29:05;16.11;81.28
68450;SHT30;67758;39.572;2.652;2023-11-21T04:31:30;16.11;81.15
68450;SHT30;67758;39.572;2.652;2023-11-21T04:33:57;16.09;81.39
68450;SHT30;67758;39.572;2.652;2023-11-21T04:36:22;16.04;81.31
68450;SHT30;67758;39.572;2.652;2023-11-21T04:38:48;16.07;80.97
68450;SHT30;67758;39.572;2.652;2023-11-21T04:41:14;16.07;80.71
68450;SHT30;67758;39.572;2.652;2023-11-21T04:43:39;16.10;80.64
68450;SHT30;67758;39.572;2.652;2023-11-21T04:46:05;16.09;80.58
68450;SHT30;67758;39.572;2.652;2023-11-21T04:48:32;16.11;81.06
68450;SHT30;67758;39.572;2.652;2023-11-21T04:50:58;16.17;80.03
68450;SHT30;67758;39.572;2.652;2023-11-21T04:53:23;16.18;79.28
68450;SHT30;67758;39.572;2.652;2023-11-21T04:55:49;16.21;78.88
68450;SHT30;67758;39.572;2.652;2023-11-21T04:58:15;16.18;79.47
68450;SHT30;67758;39.572;2.652;2023-11-21T05:00:40;16.20;78.92
68450;SHT30;67758;39.572;2.652;2023-11-21T05:03:07;16.21;79.09
68450;SHT30;67758;39.572;2.652;2023-11-21T05:05:33;16.18;79.39
68450;SHT30;67758;39.572;2.652;2023-11-21T05:08:01;16.18;79.20
68450;SHT30;67758;39.572;2.652;2023-11-21T05:10:27;16.13;79.51
68450;SHT30;67758;39.572;2.652;2023-11-21T05:12:54;16.11;79.45
68450;SHT30;67758;39.572;2.652;2023-11-21T05:15:21;16.14;79.46
68450;SHT30;67758;39.572;2.652;2023-11-21T05:17:47;16.16;79.07
68450;SHT30;67758;39.572;2.652;2023-11-21T05:20:15;16.16;79.24
68450;SHT30;67758;39.572;2.652;2023-11-21T05:22:47;16.06;79.82
68450;SHT30;67758;39.572;2.652;2023-11-21T05:25:14;15.89;79.91
68450;SHT30;67758;39.572;2.652;2023-11-21T05:27:39;15.77;80.81
68450;SHT30;67758;39.572;2.652;2023-11-21T05:30:05;15.71;81.37
68450;SHT30;67758;39.572;2.652;2023-11-21T05:32:32;15.82;77.99
68450;SHT30;67758;39.572;2.652;2023-11-21T05:34:58;15.90;77.41
68450;SHT30;67758;39.572;2.652;2023-11-21T05:37:23;16.00;78.06
68450;SHT30;67758;39.572;2.652;2023-11-21T05:39:51;16.01;78.13
68450;SHT30;67758;39.572;2.652;2023-11-21T05:42:16;15.90;77.79
68450;SHT30;67758;39.572;2.652;2023-11-21T05:44:42;15.91;76.52
68450;SHT30;67758;39.572;2.652;2023-11-21T05:47:09;16.00;75.73
68450;SHT30;67758;39.572;2.652;2023-11-21T05:49:35;16.06;73.89
68450;SHT30;67758;39.572;2.652;2023-11-21T05:52:01;16.16;72.71
68450;SHT30;67758;39.572;2.652;2023-11-21T05:54:26;16.17;72.73
68450;SHT30;67758;39.572;2.652;2023-11-21T05:56:52;16.21;71.18
68450;SHT30;67758;39.572;2.652;2023-11-21T05:59:18;16.22;70.87
68450;SHT30;67758;39.572;2.652;2023-11-21T06:01:43;16.27;71.10
68450;SHT30;67758;39.572;2.652;2023-11-21T06:04:11;16.28;72.30
68450;SHT30;67758;39.572;2.652;2023-11-21T06:06:36;16.21;70.50
68450;SHT30;67758;39.572;2.652;2023-11-21T06:09:02;16.22;68.41
68450;SHT30;67758;39.572;2.652;2023-11-21T06:11:28;16.21;70.20
68450;SHT30;67758;39.572;2.652;2023-11-21T06:13:54;16.25;69.33
68450;SHT30;67758;39.572;2.652;2023-11-21T06:16:20;16.21;69.06
68450;SHT30;67758;39.572;2.652;2023-11-21T06:18:46;16.20;68.30
68450;SHT30;67758;39.572;2.652;2023-11-21T06:21:12;16.21;68.29
68450;SHT30;67758;39.572;2.652;2023-11-21T06:23:39;16.31;67.09
68450;SHT30;67758;39.572;2.652;2023-11-21T06:26:05;16.31;66.68
68450;SHT30;67758;39.572;2.652;2023-11-21T06:28:32;16.27;66.36
68450;SHT30;67758;39.572;2.652;2023-11-21T06:30:57;16.21;66.30
68450;SHT30;67758;39.572;2.652;2023-11-21T06:33:23;16.25;65.84
68450;SHT30;67758;39.572;2.652;2023-11-21T06:35:49;16.28;65.24
68450;SHT30;67758;39.572;2.652;2023-11-21T06:38:15;16.30;64.88
68450;SHT30;67758;39.572;2.652;2023-11-21T06:40:40;16.30;64.83
68450;SHT30;67758;39.572;2.652;2023-11-21T06:43:06;16.30;64.89
68450;SHT30;67758;39.572;2.652;2023-11-21T06:45:33;16.25;65.48
68450;SHT30;67758;39.572;2.652;2023-11-21T06:47:59;16.17;66.11
68450;SHT30;67758;39.572;2.652;2023-11-21T06:50:25;16.13;66.45
68450;SHT30;67758;39.572;2.652;2023-11-21T06:52:51;16.13;66.40
68450;SHT30;67758;39.572;2.652;2023-11-21T06:55:16;16.06;66.75
68450;SHT30;67758;39.572;2.652;2023-11-21T06:57:42;16.03;66.81
68450;SHT30;67758;39.572;2.652;2023-11-21T07:00:09;15.99;66.84
68450;SHT30;67758;39.572;2.652;2023-11-21T07:02:34;15.93;67.05
68450;SHT30;67758;39.572;2.652;2023-11-21T07:05:00;16.01;66.87
68450;SHT30;67758;39.572;2.652;2023-11-21T07:07:27;16.00;66.96
68450;SHT30;67758;39.572;2.652;2023-11-21T07:09:52;15.96;67.44
68450;SHT30;67758;39.572;2.652;2023-11-21T07:12:18;15.94;67.51
68450;SHT30;67758;39.572;2.652;2023-11-21T07:14:44;15.96;67.65
68450;SHT30;67758;39.572;2.652;2023-11-21T07:17:11;15.99;68.03
68450;SHT30;67758;39.572;2.652;2023-11-21T07:19:39;16.00;67.99
68450;SHT30;67758;39.572;2.652;2023-11-21T07:22:07;16.03;68.32
68450;SHT30;67758;39.572;2.652;2023-11-21T07:24:33;16.06;68.52
68450;SHT30;67758;39.572;2.652;2023-11-21T07:26:59;16.01;68.77
68450;SHT30;67758;39.572;2.652;2023-11-21T07:29:26;16.06;68.67
68450;SHT30;67758;39.572;2.652;2023-11-21T07:31:52;16.13;68.10
68450;SHT30;67758;39.572;2.652;2023-11-21T07:34:20;16.24;67.36
68450;SHT30;67758;39.572;2.652;2023-11-21T07:36:46;16.27;67.43
68450;SHT30;67758;39.572;2.652;2023-11-21T07:39:11;16.28;67.00
68450;SHT30;67758;39.572;2.652;2023-11-21T07:41:37;16.32;66.99
68450;SHT30;67758;39.572;2.652;2023-11-21T07:44:04;16.37;67.37
68450;SHT30;67758;39.572;2.652;2023-11-21T07:46:30;16.38;67.08
68450;SHT30;67758;39.572;2.652;2023-11-21T07:48:56;16.41;67.15
68450;SHT30;67758;39.572;2.652;2023-11-21T07:51:21;16.37;67.13
68450;SHT30;67758;39.572;2.652;2023-11-21T07:53:47;16.38;67.28
68450;SHT30;67758;39.572;2.652;2023-11-21T07:56:13;16.40;67.21
68450;SHT30;67758;39.572;2.652;2023-11-21T07:58:38;16.41;67.58
68450;SHT30;67758;39.572;2.652;2023-11-21T08:01:04;16.31;67.18
68450;SHT30;67758;39.572;2.652;2023-11-21T08:03:30;16.30;67.06
68450;SHT30;67758;39.572;2.652;2023-11-21T08:05:57;16.30;66.94
68450;SHT30;67758;39.572;2.652;2023-11-21T08:08:23;16.24;66.76
68450;SHT30;67758;39.572;2.652;2023-11-21T08:10:49;16.21;66.94
68450;SHT30;67758;39.572;2.652;2023-11-21T08:13:25;16.17;67.50
68450;SHT30;67758;39.572;2.652;2023-11-21T08:15:53;16.09;66.91
68450;SHT30;67758;39.572;2.652;2023-11-21T08:18:19;16.07;66.96
68450;SHT30;67758;39.572;2.652;2023-11-21T08:20:44;16.03;66.13
68450;SHT30;67758;39.572;2.652;2023-11-21T08:23:16;15.96;66.49
68450;SHT30;67758;39.572;2.652;2023-11-21T08:25:43;15.91;66.65
68450;SHT30;67758;39.572;2.652;2023-11-21T08:28:09;15.87;66.79
68450;SHT30;67758;39.572;2.652;2023-11-21T08:30:35;15.86;66.99
68450;SHT30;67758;39.572;2.652;2023-11-21T08:33:01;15.86;66.96
68450;SHT30;67758;39.572;2.652;2023-11-21T08:35:28;15.90;66.87
68450;SHT30;67758;39.572;2.652;2023-11-21T08:37:54;16.04;66.68
68450;SHT30;67758;39.572;2.652;2023-11-21T08:40:20;16.10;66.05
68450;SHT30;67758;39.572;2.652;2023-11-21T08:42:46;16.14;65.53
68450;SHT30;67758;39.572;2.652;2023-11-21T08:45:14;16.22;65.37
68450;SHT30;67758;39.572;2.652;2023-11-21T08:47:40;16.35;65.23
68450;SHT30;67758;39.572;2.652;2023-11-21T08:50:06;16.54;64.68
68450;SHT30;67758;39.572;2.652;2023-11-21T08:52:36;16.71;64.41
68450;SHT30;67758;39.572;2.652;2023-11-21T08:55:02;16.78;64.75
68450;SHT30;67758;39.572;2.652;2023-11-21T08:57:36;16.95;64.75
68450;SHT30;67758;39.572;2.652;2023-11-21T09:00:06;16.82;65.15
68450;SHT30;67758;39.572;2.652;2023-11-21T09:02:41;16.95;65.24
68450;SHT30;67758;39.572;2.652;2023-11-21T09:05:10;17.15;64.87
68450;SHT30;67758;39.572;2.652;2023-11-21T09:07:37;17.08;64.76
68450;SHT30;67758;39.572;2.652;2023-11-21T09:10:04;17.09;65.02
68450;SHT30;67758;39.572;2.652;2023-11-21T09:12:33;16.81;65.45
68450;SHT30;67758;39.572;2.652;2023-11-21T09:15:02;16.83;65.78
68450;SHT30;67758;39.572;2.652;2023-11-21T09:17:27;16.58;66.54
68450;SHT30;67758;39.572;2.652;2023-11-21T09:19:53;16.35;67.16
68450;SHT30;67758;39.572;2.652;2023-11-21T09:22:18;16.27;68.01
68450;SHT30;67758;39.572;2.652;2023-11-21T09:24:45;16.31;68.06
68450;SHT30;67758;39.572;2.652;2023-11-21T09:27:10;16.30;68.09
68450;SHT30;67758;39.572;2.652;2023-11-21T09:29:36;16.28;68.05
68450;SHT30;67758;39.572;2.652;2023-11-21T09:32:05;16.18;67.87
68450;SHT30;67758;39.572;2.652;2023-11-21T09:34:34;16.27;68.00
68450;SHT30;67758;39.572;2.652;2023-11-21T09:37:06;16.30;67.63
68450;SHT30;67758;39.572;2.652;2023-11-21T09:39:35;16.30;67.81
68450;SHT30;67758;39.572;2.652;2023-11-21T09:42:17;16.69;67.07
68450;SHT30;67758;39.572;2.652;2023-11-21T09:45:08;16.65;67.35
68450;SHT30;67758;39.572;2.652;2023-11-21T09:47:39;16.71;67.21
68450;SHT30;67758;39.572;2.652;2023-11-21T09:50:05;16.64;67.54
68450;SHT30;67758;39.572;2.652;2023-11-21T09:53:08;16.76;67.50
68450;SHT30;67758;39.572;2.652;2023-11-21T09:55:36;16.67;66.95
68450;SHT30;67758;39.572;2.652;2023-11-21T09:58:04;16.69;67.06
68450;SHT30;67758;39.572;2.652;2023-11-21T10:00:33;16.83;67.15
68450;SHT30;67758;39.572;2.652;2023-11-21T10:02:59;16.69;67.52
68450;SHT30;67758;39.572;2.652;2023-11-21T10:05:25;16.88;67.34
68450;SHT30;67758;39.572;2.652;2023-11-21T10:07:51;16.95;67.47
68450;SHT30;67758;39.572;2.652;2023-11-21T10:10:21;16.92;67.76
68450;SHT30;67758;39.572;2.652;2023-11-21T10:12:51;16.99;67.22
68450;SHT30;67758;39.572;2.652;2023-11-21T10:15:21;17.55;66.47
68450;SHT30;67758;39.572;2.652;2023-11-21T10:17:49;18.00;64.92
68450;SHT30;67758;39.572;2.652;2023-11-21T10:20:15;19.67;60.64
68450;SHT30;67758;39.572;2.652;2023-11-21T10:22:41;20.20;58.18
68450;SHT30;67758;39.572;2.652;2023-11-21T10:25:11;21.00;56.17
68450;SHT30;67758;39.572;2.652;2023-11-21T10:27:40;21.21;55.62
68450;SHT30;67758;39.572;2.652;2023-11-21T10:30:07;22.04;53.51
68450;SHT30;67758;39.572;2.652;2023-11-21T10:32:41;21.49;54.04
68450;SHT30;67758;39.572;2.652;2023-11-21T10:35:07;21.28;54.93
68450;SHT30;67758;39.572;2.652;2023-11-21T10:37:41;20.91;55.26
68450;SHT30;67758;39.572;2.652;2023-11-21T10:40:09;21.28;54.79
68450;SHT30;67758;39.572;2.652;2023-11-21T10:42:41;20.88;55.14
68450;SHT30;67758;39.572;2.652;2023-11-21T10:45:10;21.27;54.54
68450;SHT30;67758;39.572;2.652;2023-11-21T10:47:42;21.58;53.69
68450;SHT30;67758;39.572;2.652;2023-11-21T10:50:09;21.38;54.20
68450;SHT30;67758;39.572;2.652;2023-11-21T10:52:42;21.52;53.33
68450;SHT30;67758;39.572;2.652;2023-11-21T10:55:19;22.16;52.91
68450;SHT30;67758;39.572;2.652;2023-11-21T10:57:52;22.34;52.14
68450;SHT30;67758;39.572;2.652;2023-11-21T11:00:19;21.71;53.73
68450;SHT30;67758;39.572;2.652;2023-11-21T11:02:51;20.91;54.80
68450;SHT30;67758;39.572;2.652;2023-11-21T11:05:20;19.07;59.19
68450;SHT30;67758;39.572;2.652;2023-11-21T11:07:48;18.38;61.31
68450;SHT30;67758;39.572;2.652;2023-11-21T11:10:18;17.98;62.69
68450;SHT30;67758;39.572;2.652;2023-11-21T11:12:47;17.64;63.14
68450;SHT30;67758;39.572;2.652;2023-11-21T11:15:13;17.81;63.38
68450;SHT30;67758;39.572;2.652;2023-11-21T11:17:40;18.09;62.67
68450;SHT30;67758;39.572;2.652;2023-11-21T11:20:08;18.18;61.86
68450;SHT30;67758;39.572;2.652;2023-11-21T11:22:44;18.44;60.79
68450;SHT30;67758;39.572;2.652;2023-11-21T11:25:35;19.32;59.41
68450;SHT30;67758;39.572;2.652;2023-11-21T11:28:12;18.63;60.30
68450;SHT30;67758;39.572;2.652;2023-11-21T11:36:15;18.41;61.09
68450;SHT30;67758;39.572;2.652;2023-11-21T11:38:46;18.82;60.71
68450;SHT30;67758;39.572;2.652;2023-11-21T11:41:12;19.03;60.40
68450;SHT30;67758;39.572;2.652;2023-11-21T11:43:38;18.89;60.07
68450;SHT30;67758;39.572;2.652;2023-11-21T11:46:10;19.17;59.61
68450;SHT30;67758;39.572;2.652;2023-11-21T11:48:40;19.64;58.83
68450;SHT30;67758;39.572;2.652;2023-11-21T11:51:13;21.15;55.48
68450;SHT30;67758;39.572;2.652;2023-11-21T11:53:46;20.60;56.01
68450;SHT30;67758;39.572;2.652;2023-11-21T11:56:31;19.57;58.82
68450;SHT30;67758;39.572;2.652;2023-11-21T11:59:01;18.44;61.21
68450;SHT30;67758;39.572;2.652;2023-11-21T12:01:33;18.97;60.60
68450;SHT30;67758;39.572;2.652;2023-11-21T12:06:41;19.37;59.17
68450;SHT30;67758;39.572;2.652;2023-11-21T12:09:17;19.65;58.17
68450;SHT30;67758;39.572;2.652;2023-11-21T12:11:43;20.42;57.48
68450;SHT30;67758;39.572;2.652;2023-11-21T12:14:09;22.65;52.37
68450;SHT30;67758;39.572;2.652;2023-11-21T12:16:35;23.02;50.68
68450;SHT30;67758;39.572;2.652;2023-11-21T12:19:00;22.77;51.84
68450;SHT30;67758;39.572;2.652;2023-11-21T12:21:27;23.96;49.91
68450;SHT30;67758;39.572;2.652;2023-11-21T12:23:58;22.61;51.01
68450;SHT30;67758;39.572;2.652;2023-11-21T12:26:26;21.85;53.88
68450;SHT30;67758;39.572;2.652;2023-11-21T12:28:56;22.24;53.66
68450;SHT30;67758;39.572;2.652;2023-11-21T12:31:22;21.00;55.51
68450;SHT30;67758;39.572;2.652;2023-11-21T12:33:48;20.67;55.78
68450;SHT30;67758;39.572;2.652;2023-11-21T12:36:13;20.30;56.53
68450;SHT30;67758;39.572;2.652;2023-11-21T12:38:40;21.24;55.12
68450;SHT30;67758;39.572;2.652;2023-11-21T12:41:07;20.77;55.86
68450;SHT30;67758;39.572;2.652;2023-11-21T12:43:33;20.64;57.04
68450;SHT30;67758;39.572;2.652;2023-11-21T12:46:07;19.96;57.22
68450;SHT30;67758;39.572;2.652;2023-11-21T12:48:37;18.90;59.39
68450;SHT30;67758;39.572;2.652;2023-11-21T12:51:10;18.87;59.83
68450;SHT30;67758;39.572;2.652;2023-11-21T12:53:38;18.90;59.61
68450;SHT30;67758;39.572;2.652;2023-11-21T12:56:13;18.55;57.72
68450;SHT30;67758;39.572;2.652;2023-11-21T12:58:44;18.34;58.20
68450;SHT30;67758;39.572;2.652;2023-11-21T13:01:13;18.31;57.68
68450;SHT30;67758;39.572;2.652;2023-11-21T13:03:43;18.11;57.89
68450;SHT30;67758;39.572;2.652;2023-11-21T13:06:11;18.32;58.10
68450;SHT30;67758;39.572;2.652;2023-11-21T13:08:38;18.46;57.61
68450;SHT30;67758;39.572;2.652;2023-11-21T13:11:05;18.16;58.80
68450;SHT30;67758;39.572;2.652;2023-11-21T13:13:31;18.05;59.27
68450;SHT30;67758;39.572;2.652;2023-11-21T13:16:02;17.95;60.06
68450;SHT30;67758;39.572;2.652;2023-11-21T13:18:31;17.90;60.62
68450;SHT30;67758;39.572;2.652;2023-11-21T13:20:59;17.81;60.85
68450;SHT30;67758;39.572;2.652;2023-11-21T13:23:25;17.60;61.38
68450;SHT30;67758;39.572;2.652;2023-11-21T13:25:54;17.44;61.84
68450;SHT30;67758;39.572;2.652;2023-11-21T13:28:20;17.40;62.55
68450;SHT30;67758;39.572;2.652;2023-11-21T13:30:50;17.47;63.00
68450;SHT30;67758;39.572;2.652;2023-11-21T13:33:21;17.49;63.09
68450;SHT30;67758;39.572;2.652;2023-11-21T13:35:47;17.37;63.29
68450;SHT30;67758;39.572;2.652;2023-11-21T13:38:16;18.52;60.86
68450;SHT30;67758;39.572;2.652;2023-11-21T13:40:47;19.51;57.80
68450;SHT30;67758;39.572;2.652;2023-11-21T13:43:18;20.23;56.07
68450;SHT30;67758;39.572;2.652;2023-11-21T13:45:44;18.76;59.20
68450;SHT30;67758;39.572;2.652;2023-11-21T13:48:12;18.65;59.99
68450;SHT30;67758;39.572;2.652;2023-11-21T13:50:44;18.69;59.77
68450;SHT30;67758;39.572;2.652;2023-11-21T13:53:24;18.34;60.51
68450;SHT30;67758;39.572;2.652;2023-11-21T13:55:51;18.69;60.63
68450;SHT30;67758;39.572;2.652;2023-11-21T13:58:23;19.37;59.14
68450;SHT30;67758;39.572;2.652;2023-11-21T14:01:12;18.89;60.19
68450;SHT30;67758;39.572;2.652;2023-11-21T14:03:55;18.31;62.07
68450;SHT30;67758;39.572;2.652;2023-11-21T14:06:37;18.75;60.88
68450;SHT30;67758;39.572;2.652;2023-11-21T14:09:22;18.35;62.24
68450;SHT30;67758;39.572;2.652;2023-11-21T14:12:02;18.12;64.07
68450;SHT30;67758;39.572;2.652;2023-11-21T14:14:34;18.69;61.95
68450;SHT30;67758;39.572;2.652;2023-11-21T14:17:08;19.13;60.71
68450;SHT30;67758;39.572;2.652;2023-11-21T14:19:38;19.55;59.90
68450;SHT30;67758;39.572;2.652;2023-11-21T14:22:10;19.65;59.87
68450;SHT30;67758;39.572;2.652;2023-11-21T14:24:35;19.53;60.35
68450;SHT30;67758;39.572;2.652;2023-11-21T14:27:04;19.57;59.84
68450;SHT30;67758;39.572;2.652;2023-11-21T14:29:30;19.71;59.60
68450;SHT30;67758;39.572;2.652;2023-11-21T14:31:58;20.02;58.92
68450;SHT30;67758;39.572;2.652;2023-11-21T14:34:24;18.97;61.14
68450;SHT30;67758;39.572;2.652;2023-11-21T14:36:52;18.97;61.45
68450;SHT30;67758;39.572;2.652;2023-11-21T14:39:17;19.00;60.84
68450;SHT30;67758;39.572;2.652;2023-11-21T14:41:51;19.26;61.03
68450;SHT30;67758;39.572;2.652;2023-11-21T14:44:18;19.24;60.64
68450;SHT30;67758;39.572;2.652;2023-11-21T14:46:44;19.34;60.70
68450;SHT30;67758;39.572;2.652;2023-11-21T14:49:12;19.24;61.11
68450;SHT30;67758;39.572;2.652;2023-11-21T14:51:51;20.09;59.21
68450;SHT30;67758;39.572;2.652;2023-11-21T14:54:28;20.39;58.94
68450;SHT30;67758;39.572;2.652;2023-11-21T14:57:10;19.86;59.68
68450;SHT30;67758;39.572;2.652;2023-11-21T14:59:42;19.93;59.79
68450;SHT30;67758;39.572;2.652;2023-11-21T15:02:08;19.69;60.67
68450;SHT30;67758;39.572;2.652;2023-11-21T15:04:43;19.58;61.14
68450;SHT30;67758;39.572;2.652;2023-11-21T15:07:10;19.30;61.66
68450;SHT30;67758;39.572;2.652;2023-11-21T15:09:39;19.03;62.06
68450;SHT30;67758;39.572;2.652;2023-11-21T15:12:07;19.31;61.54
68450;SHT30;67758;39.572;2.652;2023-11-21T15:14:45;19.51;60.66
68450;SHT30;67758;39.572;2.652;2023-11-21T15:17:14;19.27;61.05
68450;SHT30;67758;39.572;2.652;2023-11-21T15:19:54;19.54;60.48
68450;SHT30;67758;39.572;2.652;2023-11-21T15:22:20;19.67;60.38
68450;SHT30;67758;39.572;2.652;2023-11-21T15:24:46;19.55;60.82
68450;SHT30;67758;39.572;2.652;2023-11-21T15:27:15;18.86;62.39
68450;SHT30;67758;39.572;2.652;2023-11-21T15:29:44;18.24;64.38
68450;SHT30;67758;39.572;2.652;2023-11-21T15:32:10;17.97;65.46
68450;SHT30;67758;39.572;2.652;2023-11-21T15:34:37;17.62;65.99
68450;SHT30;67758;39.572;2.652;2023-11-21T15:37:04;17.60;65.69
68450;SHT30;67758;39.572;2.652;2023-11-21T15:39:31;17.47;66.12
68450;SHT30;67758;39.572;2.652;2023-11-21T15:41:57;17.40;65.85